sensor_id;sensor_type;location;lat;lon;timestamp;temperature;humidity
4183;DHT22;2105;52.300;9.182;2023-04-15T00:01:10;6.10;1.00
4183;DHT22;2105;52.300;9.182;2023-04-15T00:03:37;6.10;1.00
4183;DHT22;2105;52.300;9.182;2023-04-15T00:06:04;6.10;1.00
4183;DHT22;2105;52.300;9.182;2023-04-15T00:08:33;6.10;1.00
4183;DHT22;2105;52.300;9.182;2023-04-15T00:11:00;6.20;59.50
4183;DHT22;2105;52.300;9.182;2023-04-15T00:13:30;6.30;99.90
4183;DHT22;2105;52.300;9.182;2023-04-15T00:15:56;6.40;99.90
4183;DHT22;2105;52.300;9.182;2023-04-15T00:18:23;6.50;99.90
4183;DHT22;2105;52.300;9.182;2023-04-15T00:20:50;6.60;99.90
4183;DHT22;2105;52.300;9.182;2023-04-15T00:23:17;6.60;99.90
4183;DHT22;2105;52.300;9.182;2023-04-15T00:25:46;6.50;99.90
4183;DHT22;2105;52.300;9.182;2023-04-15T00:28:12;6.60;99.90
4183;DHT22;2105;52.300;9.182;2023-04-15T00:30:39;6.60;99.90
4183;DHT22;2105;52.300;9.182;2023-04-15T00:33:06;6.50;99.90
4183;DHT22;2105;52.300;9.182;2023-04-15T00:35:33;6.50;99.90
4183;DHT22;2105;52.300;9.182;2023-04-15T00:38:01;6.60;99.90
4183;DHT22;2105;52.300;9.182;2023-04-15T00:40:27;6.60;99.90
4183;DHT22;2105;52.300;9.182;2023-04-15T00:42:55;6.60;99.90
4183;DHT22;2105;52.300;9.182;2023-04-15T00:45:22;6.60;1.00
4183;DHT22;2105;52.300;9.182;2023-04-15T00:47:50;6.60;1.00
4183;DHT22;2105;52.300;9.182;2023-04-15T00:50:16;6.50;1.00
4183;DHT22;2105;52.300;9.182;2023-04-15T00:52:43;6.50;1.00
4183;DHT22;2105;52.300;9.182;2023-04-15T00:55:10;6.30;1.00
4183;DHT22;2105;52.300;9.182;2023-04-15T00:57:38;6.30;1.00
4183;DHT22;2105;52.300;9.182;2023-04-15T01:00:08;6.30;1.00
4183;DHT22;2105;52.300;9.182;2023-04-15T01:02:36;6.40;1.00
4183;DHT22;2105;52.300;9.182;2023-04-15T01:05:03;6.30;1.00
4183;DHT22;2105;52.300;9.182;2023-04-15T01:07:30;6.30;1.00
4183;DHT22;2105;52.300;9.182;2023-04-15T01:09:57;6.40;50.00
4183;DHT22;2105;52.300;9.182;2023-04-15T01:12:26;6.30;81.70
4183;DHT22;2105;52.300;9.182;2023-04-15T01:14:53;6.30;99.90
4183;DHT22;2105;52.300;9.182;2023-04-15T01:17:23;6.40;99.90
4183;DHT22;2105;52.300;9.182;2023-04-15T01:19:50;6.50;99.90
4183;DHT22;2105;52.300;9.182;2023-04-15T01:22:16;6.60;99.90
4183;DHT22;2105;52.300;9.182;2023-04-15T01:24:50;6.60;99.90
4183;DHT22;2105;52.300;9.182;2023-04-15T01:27:22;6.60;99.90
4183;DHT22;2105;52.300;9.182;2023-04-15T01:29:49;6.70;99.90
4183;DHT22;2105;52.300;9.182;2023-04-15T01:32:16;6.70;99.90
4183;DHT22;2105;52.300;9.182;2023-04-15T01:34:42;6.70;99.90
4183;DHT22;2105;52.300;9.182;2023-04-15T01:37:09;6.80;99.90
4183;DHT22;2105;52.300;9.182;2023-04-15T01:39:36;6.90;49.90
4183;DHT22;2105;52.300;9.182;2023-04-15T01:42:03;6.90;1.00
4183;DHT22;2105;52.300;9.182;2023-04-15T01:44:32;6.80;1.00
4183;DHT22;2105;52.300;9.182;2023-04-15T01:46:58;6.80;1.00
4183;DHT22;2105;52.300;9.182;2023-04-15T01:49:25;6.80;1.00
4183;DHT22;2105;52.300;9.182;2023-04-15T01:51:52;6.70;1.00
4183;DHT22;2105;52.300;9.182;2023-04-15T01:54:19;6.70;1.00
4183;DHT22;2105;52.300;9.182;2023-04-15T01:56:46;6.60;1.00
4183;DHT22;2105;52.300;9.182;2023-04-15T01:59:13;6.60;99.90
4183;DHT22;2105;52.300;9.182;2023-04-15T02:01:41;6.50;99.90
4183;DHT22;2105;52.300;9.182;2023-04-15T02:04:08;6.50;99.90
4183;DHT22;2105;52.300;9.182;2023-04-15T02:06:41;6.60;99.90
4183;DHT22;2105;52.300;9.182;2023-04-15T02:09:07;6.70;99.90
4183;DHT22;2105;52.300;9.182;2023-04-15T02:11:34;6.70;99.90
4183;DHT22;2105;52.300;9.182;2023-04-15T02:14:01;6.70;1.00
4183;DHT22;2105;52.300;9.182;2023-04-15T02:16:29;6.90;1.00
4183;DHT22;2105;52.300;9.182;2023-04-15T02:18:58;7.10;1.00
4183;DHT22;2105;52.300;9.182;2023-04-15T02:21:25;7.10;99.90
4183;DHT22;2105;52.300;9.182;2023-04-15T02:23:52;7.00;99.90
4183;DHT22;2105;52.300;9.182;2023-04-15T02:26:19;6.90;99.90
4183;DHT22;2105;52.300;9.182;2023-04-15T02:28:47;6.90;99.90
4183;DHT22;2105;52.300;9.182;2023-04-15T02:31:15;6.90;99.90
4183;DHT22;2105;52.300;9.182;2023-04-15T02:33:42;7.00;99.90
4183;DHT22;2105;52.300;9.182;2023-04-15T02:36:11;6.90;99.90
4183;DHT22;2105;52.300;9.182;2023-04-15T02:38:38;6.90;99.90
4183;DHT22;2105;52.300;9.182;2023-04-15T02:41:07;6.90;99.90
4183;DHT22;2105;52.300;9.182;2023-04-15T02:43:34;6.90;1.00
4183;DHT22;2105;52.300;9.182;2023-04-15T02:46:01;6.90;99.90
4183;DHT22;2105;52.300;9.182;2023-04-15T02:48:28;6.90;99.90
4183;DHT22;2105;52.300;9.182;2023-04-15T02:51:11;6.90;1.00
4183;DHT22;2105;52.300;9.182;2023-04-15T02:53:38;6.80;1.00
4183;DHT22;2105;52.300;9.182;2023-04-15T02:56:06;6.80;1.00
4183;DHT22;2105;52.300;9.182;2023-04-15T02:58:33;6.80;1.00
4183;DHT22;2105;52.300;9.182;2023-04-15T03:01:00;6.90;1.00
4183;DHT22;2105;52.300;9.182;2023-04-15T03:03:27;7.00;1.00
4183;DHT22;2105;52.300;9.182;2023-04-15T03:05:54;7.00;1.00
4183;DHT22;2105;52.300;9.182;2023-04-15T03:08:22;7.00;1.00
4183;DHT22;2105;52.300;9.182;2023-04-15T03:10:49;7.00;1.00
4183;DHT22;2105;52.300;9.182;2023-04-15T03:13:17;7.00;1.00
4183;DHT22;2105;52.300;9.182;2023-04-15T03:15:45;7.10;1.00
4183;DHT22;2105;52.300;9.182;2023-04-15T03:18:12;7.10;1.00
4183;DHT22;2105;52.300;9.182;2023-04-15T03:20:39;7.10;1.00
4183;DHT22;2105;52.300;9.182;2023-04-15T03:23:06;7.10;1.00
4183;DHT22;2105;52.300;9.182;2023-04-15T03:25:34;7.20;1.00
4183;DHT22;2105;52.300;9.182;2023-04-15T03:28:02;7.10;99.90
4183;DHT22;2105;52.300;9.182;2023-04-15T03:30:29;7.10;99.90
4183;DHT22;2105;52.300;9.182;2023-04-15T03:32:56;7.00;99.90
4183;DHT22;2105;52.300;9.182;2023-04-15T03:35:23;7.00;99.90
4183;DHT22;2105;52.300;9.182;2023-04-15T03:37:49;7.00;99.90
4183;DHT22;2105;52.300;9.182;2023-04-15T03:40:16;7.10;99.90
4183;DHT22;2105;52.300;9.182;2023-04-15T03:42:44;7.10;99.90
4183;DHT22;2105;52.300;9.182;2023-04-15T03:45:11;7.10;1.00
4183;DHT22;2105;52.300;9.182;2023-04-15T03:47:38;7.10;1.00
4183;DHT22;2105;52.300;9.182;2023-04-15T03:50:06;7.20;1.00
4183;DHT22;2105;52.300;9.182;2023-04-15T03:52:33;7.20;1.00
4183;DHT22;2105;52.300;9.182;2023-04-15T03:54:59;7.10;99.90
4183;DHT22;2105;52.300;9.182;2023-04-15T03:57:26;7.10;99.90
4183;DHT22;2105;52.300;9.182;2023-04-15T03:59:54;7.00;99.90
4183;DHT22;2105;52.300;9.182;2023-04-15T04:02:21;7.00;99.90
4183;DHT22;2105;52.300;9.182;2023-04-15T04:04:48;7.00;1.00
4183;DHT22;2105;52.300;9.182;2023-04-15T04:07:15;7.00;1.00
4183;DHT22;2105;52.300;9.182;2023-04-15T04:09:42;6.90;1.00
4183;DHT22;2105;52.300;9.182;2023-04-15T04:12:09;6.90;1.00
4183;DHT22;2105;52.300;9.182;2023-04-15T04:14:38;6.90;1.00
4183;DHT22;2105;52.300;9.182;2023-04-15T04:17:07;7.00;1.00
4183;DHT22;2105;52.300;9.182;2023-04-15T04:19:34;7.00;1.00
4183;DHT22;2105;52.300;9.182;2023-04-15T04:22:01;7.00;1.00
4183;DHT22;2105;52.300;9.182;2023-04-15T04:24:27;7.00;1.00
4183;DHT22;2105;52.300;9.182;2023-04-15T04:26:54;7.10;1.00
4183;DHT22;2105;52.300;9.182;2023-04-15T04:29:21;7.10;1.00
4183;DHT22;2105;52.300;9.182;2023-04-15T04:31:48;7.20;1.00
4183;DHT22;2105;52.300;9.182;2023-04-15T04:34:16;7.10;1.00
4183;DHT22;2105;52.300;9.182;2023-04-15T04:36:49;7.00;1.00
4183;DHT22;2105;52.300;9.182;2023-04-15T04:39:29;7.00;1.00
4183;DHT22;2105;52.300;9.182;2023-04-15T04:41:57;7.00;1.00
4183;DHT22;2105;52.300;9.182;2023-04-15T04:44:25;7.00;1.00
4183;DHT22;2105;52.300;9.182;2023-04-15T04:46:52;7.00;1.00
4183;DHT22;2105;52.300;9.182;2023-04-15T04:49:20;7.00;1.00
4183;DHT22;2105;52.300;9.182;2023-04-15T04:51:47;7.00;1.00
4183;DHT22;2105;52.300;9.182;2023-04-15T04:54:14;7.10;51.50
4183;DHT22;2105;52.300;9.182;2023-04-15T04:56:42;7.10;18.90
4183;DHT22;2105;52.300;9.182;2023-04-15T04:59:08;7.10;4.50
4183;DHT22;2105;52.300;9.182;2023-04-15T05:01:35;7.10;25.70
4183;DHT22;2105;52.300;9.182;2023-04-15T05:04:02;7.10;43.60
4183;DHT22;2105;52.300;9.182;2023-04-15T05:06:30;7.10;27.00
4183;DHT22;2105;52.300;9.182;2023-04-15T05:08:57;7.10;37.80
4183;DHT22;2105;52.300;9.182;2023-04-15T06:13:28;7.30;99.90
4183;DHT22;2105;52.300;9.182;2023-04-15T06:15:55;7.30;99.90
4183;DHT22;2105;52.300;9.182;2023-04-15T06:18:22;7.30;99.90
4183;DHT22;2105;52.300;9.182;2023-04-15T06:20:49;7.30;99.90
4183;DHT22;2105;52.300;9.182;2023-04-15T06:23:16;7.20;99.90
4183;DHT22;2105;52.300;9.182;2023-04-15T06:28:21;7.30;99.90
4183;DHT22;2105;52.300;9.182;2023-04-15T06:30:53;7.30;99.90
4183;DHT22;2105;52.300;9.182;2023-04-15T06:33:23;7.30;99.90
4183;DHT22;2105;52.300;9.182;2023-04-15T06:35:52;7.30;99.90
4183;DHT22;2105;52.300;9.182;2023-04-15T06:38:23;7.40;99.90
4183;DHT22;2105;52.300;9.182;2023-04-15T06:40:50;7.40;99.90
4183;DHT22;2105;52.300;9.182;2023-04-15T06:43:21;7.40;99.90
4183;DHT22;2105;52.300;9.182;2023-04-15T06:46:00;7.30;99.90
4183;DHT22;2105;52.300;9.182;2023-04-15T06:48:38;7.30;99.90
4183;DHT22;2105;52.300;9.182;2023-04-15T06:51:23;7.30;99.90
4183;DHT22;2105;52.300;9.182;2023-04-15T06:53:53;7.40;99.90
4183;DHT22;2105;52.300;9.182;2023-04-15T06:56:22;7.30;99.90
4183;DHT22;2105;52.300;9.182;2023-04-15T06:58:49;7.30;99.90
4183;DHT22;2105;52.300;9.182;2023-04-15T07:01:19;7.40;99.90
4183;DHT22;2105;52.300;9.182;2023-04-15T07:14:00;7.30;99.90
4183;DHT22;2105;52.300;9.182;2023-04-15T07:27:03;7.40;99.90
4183;DHT22;2105;52.300;9.182;2023-04-15T07:30:39;7.40;99.90
4183;DHT22;2105;52.300;9.182;2023-04-15T07:36:56;7.50;99.90
4183;DHT22;2105;52.300;9.182;2023-04-15T07:53:10;7.40;99.90
4183;DHT22;2105;52.300;9.182;2023-04-15T07:55:40;7.40;99.90
4183;DHT22;2105;52.300;9.182;2023-04-15T07:58:10;7.50;99.90
4183;DHT22;2105;52.300;9.182;2023-04-15T08:00:56;7.50;99.90
4183;DHT22;2105;52.300;9.182;2023-04-15T08:13:29;7.50;99.90
4183;DHT22;2105;52.300;9.182;2023-04-15T08:23:24;7.50;99.90
4183;DHT22;2105;52.300;9.182;2023-04-15T08:32:30;7.60;99.90
4183;DHT22;2105;52.300;9.182;2023-04-15T08:34:56;7.60;99.90
4183;DHT22;2105;52.300;9.182;2023-04-15T08:37:23;7.60;99.90
4183;DHT22;2105;52.300;9.182;2023-04-15T08:39:51;7.60;99.90
4183;DHT22;2105;52.300;9.182;2023-04-15T08:42:23;7.60;99.90
4183;DHT22;2105;52.300;9.182;2023-04-15T08:44:52;7.60;99.90
4183;DHT22;2105;52.300;9.182;2023-04-15T08:47:20;7.60;99.90
4183;DHT22;2105;52.300;9.182;2023-04-15T08:49:52;7.60;99.90
4183;DHT22;2105;52.300;9.182;2023-04-15T08:52:20;7.60;99.90
4183;DHT22;2105;52.300;9.182;2023-04-15T08:54:47;7.60;99.90
4183;DHT22;2105;52.300;9.182;2023-04-15T08:57:14;7.70;99.90
4183;DHT22;2105;52.300;9.182;2023-04-15T08:59:41;7.70;99.90
4183;DHT22;2105;52.300;9.182;2023-04-15T09:02:09;7.70;99.90
4183;DHT22;2105;52.300;9.182;2023-04-15T09:04:36;7.80;99.90
4183;DHT22;2105;52.300;9.182;2023-04-15T09:07:04;7.80;99.90
4183;DHT22;2105;52.300;9.182;2023-04-15T09:09:30;7.80;99.90
4183;DHT22;2105;52.300;9.182;2023-04-15T09:11:57;7.90;99.90
4183;DHT22;2105;52.300;9.182;2023-04-15T09:14:24;7.90;99.90
4183;DHT22;2105;52.300;9.182;2023-04-15T09:16:57;8.00;99.90
4183;DHT22;2105;52.300;9.182;2023-04-15T09:19:25;8.00;99.90
4183;DHT22;2105;52.300;9.182;2023-04-15T10:11:05;8.30;99.90
4183;DHT22;2105;52.300;9.182;2023-04-15T10:13:32;8.40;99.90
4183;DHT22;2105;52.300;9.182;2023-04-15T10:16:07;8.40;99.90
4183;DHT22;2105;52.300;9.182;2023-04-15T10:18:41;8.40;99.90
4183;DHT22;2105;52.300;9.182;2023-04-15T10:21:08;8.40;99.90
4183;DHT22;2105;52.300;9.182;2023-04-15T10:23:35;8.40;99.90
4183;DHT22;2105;52.300;9.182;2023-04-15T10:26:06;8.40;99.90
4183;DHT22;2105;52.300;9.182;2023-04-15T10:28:37;8.50;99.90
4183;DHT22;2105;52.300;9.182;2023-04-15T10:31:18;8.50;99.90
4183;DHT22;2105;52.300;9.182;2023-04-15T10:34:05;8.40;99.90
4183;DHT22;2105;52.300;9.182;2023-04-15T10:36:48;8.50;99.90
4183;DHT22;2105;52.300;9.182;2023-04-15T10:39:38;8.50;99.90
4183;DHT22;2105;52.300;9.182;2023-04-15T10:42:35;8.50;99.90
4183;DHT22;2105;52.300;9.182;2023-04-15T10:45:15;8.50;99.90
4183;DHT22;2105;52.300;9.182;2023-04-15T10:48:05;8.60;99.90
4183;DHT22;2105;52.300;9.182;2023-04-15T10:50:42;8.60;99.90
4183;DHT22;2105;52.300;9.182;2023-04-15T10:53:27;8.60;99.90
4183;DHT22;2105;52.300;9.182;2023-04-15T10:55:57;8.60;99.90
4183;DHT22;2105;52.300;9.182;2023-04-15T10:58:46;8.70;99.90
4183;DHT22;2105;52.300;9.182;2023-04-15T11:01:13;8.60;99.90
4183;DHT22;2105;52.300;9.182;2023-04-15T11:03:44;8.70;99.90
4183;DHT22;2105;52.300;9.182;2023-04-15T11:06:16;8.60;99.90
4183;DHT22;2105;52.300;9.182;2023-04-15T11:08:56;8.60;99.90
4183;DHT22;2105;52.300;9.182;2023-04-15T11:12:13;8.60;99.90
4183;DHT22;2105;52.300;9.182;2023-04-15T11:14:42;8.60;99.90
4183;DHT22;2105;52.300;9.182;2023-04-15T11:17:53;8.70;99.90
4183;DHT22;2105;52.300;9.182;2023-04-15T11:20:34;8.80;99.90
4183;DHT22;2105;52.300;9.182;2023-04-15T11:23:01;8.60;99.90
4183;DHT22;2105;52.300;9.182;2023-04-15T11:25:30;8.70;99.90
4183;DHT22;2105;52.300;9.182;2023-04-15T11:28:00;8.70;99.90
4183;DHT22;2105;52.300;9.182;2023-04-15T11:30:31;8.80;99.90
4183;DHT22;2105;52.300;9.182;2023-04-15T11:32:59;8.80;99.90
4183;DHT22;2105;52.300;9.182;2023-04-15T11:35:27;8.80;99.90
4183;DHT22;2105;52.300;9.182;2023-04-15T11:37:55;8.80;99.90
4183;DHT22;2105;52.300;9.182;2023-04-15T11:40:23;8.80;99.90
4183;DHT22;2105;52.300;9.182;2023-04-15T11:43:03;8.80;99.90
4183;DHT22;2105;52.300;9.182;2023-04-15T11:45:36;8.80;99.90
4183;DHT22;2105;52.300;9.182;2023-04-15T11:48:07;8.90;99.90
4183;DHT22;2105;52.300;9.182;2023-04-15T11:50:37;8.90;99.90
4183;DHT22;2105;52.300;9.182;2023-04-15T11:53:10;8.90;99.90
4183;DHT22;2105;52.300;9.182;2023-04-15T11:55:42;8.90;99.90
4183;DHT22;2105;52.300;9.182;2023-04-15T11:58:17;8.90;99.90
4183;DHT22;2105;52.300;9.182;2023-04-15T12:00:50;9.00;99.90
4183;DHT22;2105;52.300;9.182;2023-04-15T12:03:21;9.00;99.90
4183;DHT22;2105;52.300;9.182;2023-04-15T12:06:10;9.00;99.90
4183;DHT22;2105;52.300;9.182;2023-04-15T12:08:49;9.00;99.90
4183;DHT22;2105;52.300;9.182;2023-04-15T12:11:17;9.00;99.90
4183;DHT22;2105;52.300;9.182;2023-04-15T12:13:48;9.10;99.90
4183;DHT22;2105;52.300;9.182;2023-04-15T12:16:17;9.10;99.90
4183;DHT22;2105;52.300;9.182;2023-04-15T12:18:45;9.10;99.90
4183;DHT22;2105;52.300;9.182;2023-04-15T12:21:13;9.10;99.90
4183;DHT22;2105;52.300;9.182;2023-04-15T12:23:49;9.20;99.90
4183;DHT22;2105;52.300;9.182;2023-04-15T12:26:18;9.20;99.90
4183;DHT22;2105;52.300;9.182;2023-04-15T12:28:53;9.10;99.90
4183;DHT22;2105;52.300;9.182;2023-04-15T12:31:21;9.20;99.90
4183;DHT22;2105;52.300;9.182;2023-04-15T12:33:49;9.20;99.90
4183;DHT22;2105;52.300;9.182;2023-04-15T12:36:19;9.10;99.90
4183;DHT22;2105;52.300;9.182;2023-04-15T12:38:45;9.10;99.90
4183;DHT22;2105;52.300;9.182;2023-04-15T12:41:12;9.10;99.90
4183;DHT22;2105;52.300;9.182;2023-04-15T12:43:39;9.10;99.90
4183;DHT22;2105;52.300;9.182;2023-04-15T12:46:06;9.20;99.90
4183;DHT22;2105;52.300;9.182;2023-04-15T12:48:35;9.20;99.90
4183;DHT22;2105;52.300;9.182;2023-04-15T12:51:02;9.20;99.90
4183;DHT22;2105;52.300;9.182;2023-04-15T12:53:29;9.20;99.90
4183;DHT22;2105;52.300;9.182;2023-04-15T12:55:56;9.20;99.90
4183;DHT22;2105;52.300;9.182;2023-04-15T12:58:22;9.20;99.90
4183;DHT22;2105;52.300;9.182;2023-04-15T13:00:49;9.20;99.90
4183;DHT22;2105;52.300;9.182;2023-04-15T13:03:16;9.20;99.90
4183;DHT22;2105;52.300;9.182;2023-04-15T13:05:44;9.30;99.90
4183;DHT22;2105;52.300;9.182;2023-04-15T13:08:11;9.30;99.90
4183;DHT22;2105;52.300;9.182;2023-04-15T13:10:38;9.40;99.90
4183;DHT22;2105;52.300;9.182;2023-04-15T13:13:05;9.40;99.90
4183;DHT22;2105;52.300;9.182;2023-04-15T13:15:31;9.40;99.90
4183;DHT22;2105;52.300;9.182;2023-04-15T13:17:58;9.40;99.90
4183;DHT22;2105;52.300;9.182;2023-04-15T13:20:25;9.40;99.90
4183;DHT22;2105;52.300;9.182;2023-04-15T13:22:54;9.50;99.90
4183;DHT22;2105;52.300;9.182;2023-04-15T13:25:21;9.50;99.90
4183;DHT22;2105;52.300;9.182;2023-04-15T13:27:48;9.50;99.90
4183;DHT22;2105;52.300;9.182;2023-04-15T13:30:15;9.40;99.90
4183;DHT22;2105;52.300;9.182;2023-04-15T13:32:41;9.40;99.90
4183;DHT22;2105;52.300;9.182;2023-04-15T13:35:08;9.50;99.90
4183;DHT22;2105;52.300;9.182;2023-04-15T13:37:35;9.50;99.90
4183;DHT22;2105;52.300;9.182;2023-04-15T13:40:09;9.50;99.90
4183;DHT22;2105;52.300;9.182;2023-04-15T13:42:36;9.50;99.90
4183;DHT22;2105;52.300;9.182;2023-04-15T13:45:07;9.50;99.90
4183;DHT22;2105;52.300;9.182;2023-04-15T13:47:34;9.50;99.90
4183;DHT22;2105;52.300;9.182;2023-04-15T13:50:01;9.50;99.90
4183;DHT22;2105;52.300;9.182;2023-04-15T13:52:28;9.50;99.90
4183;DHT22;2105;52.300;9.182;2023-04-15T13:54:54;9.50;99.90
4183;DHT22;2105;52.300;9.182;2023-04-15T13:57:22;9.50;99.90
4183;DHT22;2105;52.300;9.182;2023-04-15T13:59:50;9.50;99.90
4183;DHT22;2105;52.300;9.182;2023-04-15T14:02:21;9.50;99.90
4183;DHT22;2105;52.300;9.182;2023-04-15T14:04:48;9.50;99.90
4183;DHT22;2105;52.300;9.182;2023-04-15T14:07:29;9.60;99.90
4183;DHT22;2105;52.300;9.182;2023-04-15T14:10:03;9.60;99.90
4183;DHT22;2105;52.300;9.182;2023-04-15T14:15:49;9.60;99.90
4183;DHT22;2105;52.300;9.182;2023-04-15T14:18:16;9.60;99.90
4183;DHT22;2105;52.300;9.182;2023-04-15T14:20:43;9.70;99.90
4183;DHT22;2105;52.300;9.182;2023-04-15T14:23:10;9.60;99.90
4183;DHT22;2105;52.300;9.182;2023-04-15T14:25:36;9.70;99.90
4183;DHT22;2105;52.300;9.182;2023-04-15T14:28:04;9.60;99.90
4183;DHT22;2105;52.300;9.182;2023-04-15T14:30:32;9.60;99.90
4183;DHT22;2105;52.300;9.182;2023-04-15T14:33:01;9.60;99.90
4183;DHT22;2105;52.300;9.182;2023-04-15T14:35:27;9.60;99.90
4183;DHT22;2105;52.300;9.182;2023-04-15T14:37:54;9.70;99.90
4183;DHT22;2105;52.300;9.182;2023-04-15T14:40:25;9.70;99.90
4183;DHT22;2105;52.300;9.182;2023-04-15T14:42:52;9.70;99.90
4183;DHT22;2105;52.300;9.182;2023-04-15T14:45:18;9.70;99.90
4183;DHT22;2105;52.300;9.182;2023-04-15T14:47:45;9.80;99.90
4183;DHT22;2105;52.300;9.182;2023-04-15T14:50:14;9.80;99.90
4183;DHT22;2105;52.300;9.182;2023-04-15T14:52:41;9.90;99.90
4183;DHT22;2105;52.300;9.182;2023-04-15T14:55:09;10.10;99.90
4183;DHT22;2105;52.300;9.182;2023-04-15T14:57:36;10.20;99.90
4183;DHT22;2105;52.300;9.182;2023-04-15T15:00:04;10.30;99.90
4183;DHT22;2105;52.300;9.182;2023-04-15T15:02:32;10.40;99.90
4183;DHT22;2105;52.300;9.182;2023-04-15T15:05:00;10.40;99.90
4183;DHT22;2105;52.300;9.182;2023-04-15T15:07:28;10.40;99.90
4183;DHT22;2105;52.300;9.182;2023-04-15T15:09:54;10.40;99.90
4183;DHT22;2105;52.300;9.182;2023-04-15T15:12:21;10.40;99.90
4183;DHT22;2105;52.300;9.182;2023-04-15T15:14:48;10.50;99.90
4183;DHT22;2105;52.300;9.182;2023-04-15T15:17:15;10.50;99.90
4183;DHT22;2105;52.300;9.182;2023-04-15T15:19:42;10.50;99.90
4183;DHT22;2105;52.300;9.182;2023-04-15T15:22:08;10.60;99.90
4183;DHT22;2105;52.300;9.182;2023-04-15T15:24:36;10.60;99.90
4183;DHT22;2105;52.300;9.182;2023-04-15T15:27:03;10.60;99.90
4183;DHT22;2105;52.300;9.182;2023-04-15T15:29:30;10.70;99.90
4183;DHT22;2105;52.300;9.182;2023-04-15T15:31:57;10.60;99.90
4183;DHT22;2105;52.300;9.182;2023-04-15T15:34:23;10.60;99.90
4183;DHT22;2105;52.300;9.182;2023-04-15T15:36:50;10.50;99.90
4183;DHT22;2105;52.300;9.182;2023-04-15T15:39:17;10.50;99.90
4183;DHT22;2105;52.300;9.182;2023-04-15T15:41:46;10.50;99.90
4183;DHT22;2105;52.300;9.182;2023-04-15T15:44:13;10.50;99.90
4183;DHT22;2105;52.300;9.182;2023-04-15T15:46:40;10.50;99.90
4183;DHT22;2105;52.300;9.182;2023-04-15T15:49:07;10.50;99.90
4183;DHT22;2105;52.300;9.182;2023-04-15T15:51:33;10.40;99.90
4183;DHT22;2105;52.300;9.182;2023-04-15T15:54:00;10.50;99.90
4183;DHT22;2105;52.300;9.182;2023-04-15T15:56:27;10.60;99.90
4183;DHT22;2105;52.300;9.182;2023-04-15T15:58:55;10.60;99.90
4183;DHT22;2105;52.300;9.182;2023-04-15T16:01:21;10.50;99.90
4183;DHT22;2105;52.300;9.182;2023-04-15T16:03:48;10.50;99.90
4183;DHT22;2105;52.300;9.182;2023-04-15T16:06:15;10.50;99.90
4183;DHT22;2105;52.300;9.182;2023-04-15T16:08:43;10.50;99.90
4183;DHT22;2105;52.300;9.182;2023-04-15T16:11:10;10.50;99.90
4183;DHT22;2105;52.300;9.182;2023-04-15T16:13:38;10.50;99.90
4183;DHT22;2105;52.300;9.182;2023-04-15T16:16:07;10.60;99.90
4183;DHT22;2105;52.300;9.182;2023-04-15T16:18:33;10.60;99.90
4183;DHT22;2105;52.300;9.182;2023-04-15T16:21:00;10.60;99.90
4183;DHT22;2105;52.300;9.182;2023-04-15T16:23:27;10.60;99.90
4183;DHT22;2105;52.300;9.182;2023-04-15T16:25:54;10.50;99.90
4183;DHT22;2105;52.300;9.182;2023-04-15T16:28:22;10.50;99.90
4183;DHT22;2105;52.300;9.182;2023-04-15T16:30:48;10.50;99.90
4183;DHT22;2105;52.300;9.182;2023-04-15T16:33:16;10.50;99.90
4183;DHT22;2105;52.300;9.182;2023-04-15T16:35:43;10.50;99.90
4183;DHT22;2105;52.300;9.182;2023-04-15T16:38:10;10.50;99.90
4183;DHT22;2105;52.300;9.182;2023-04-15T16:40:37;10.40;99.90
4183;DHT22;2105;52.300;9.182;2023-04-15T16:43:04;10.40;99.90
4183;DHT22;2105;52.300;9.182;2023-04-15T16:45:32;10.40;99.90
4183;DHT22;2105;52.300;9.182;2023-04-15T16:47:59;10.40;99.90
4183;DHT22;2105;52.300;9.182;2023-04-15T16:50:29;10.40;99.90
4183;DHT22;2105;52.300;9.182;2023-04-15T16:52:55;10.50;99.90
4183;DHT22;2105;52.300;9.182;2023-04-15T16:55:23;10.60;99.90
4183;DHT22;2105;52.300;9.182;2023-04-15T16:57:50;10.50;99.90
4183;DHT22;2105;52.300;9.182;2023-04-15T17:00:17;10.60;99.90
4183;DHT22;2105;52.300;9.182;2023-04-15T17:02:44;10.50;99.90
4183;DHT22;2105;52.300;9.182;2023-04-15T17:05:11;10.60;99.90
4183;DHT22;2105;52.300;9.182;2023-04-15T17:07:39;10.60;99.90
4183;DHT22;2105;52.300;9.182;2023-04-15T17:10:07;10.60;99.90
4183;DHT22;2105;52.300;9.182;2023-04-15T17:12:34;10.50;99.90
4183;DHT22;2105;52.300;9.182;2023-04-15T17:15:00;10.50;99.90
4183;DHT22;2105;52.300;9.182;2023-04-15T17:17:27;10.50;99.90
4183;DHT22;2105;52.300;9.182;2023-04-15T17:19:54;10.50;99.90
4183;DHT22;2105;52.300;9.182;2023-04-15T17:22:20;10.50;99.90
4183;DHT22;2105;52.300;9.182;2023-04-15T17:24:48;10.40;99.90
4183;DHT22;2105;52.300;9.182;2023-04-15T17:27:15;10.40;99.90
4183;DHT22;2105;52.300;9.182;2023-04-15T17:29:42;10.40;99.90
4183;DHT22;2105;52.300;9.182;2023-04-15T17:32:08;10.40;99.90
4183;DHT22;2105;52.300;9.182;2023-04-15T17:34:35;10.50;99.90
4183;DHT22;2105;52.300;9.182;2023-04-15T17:37:02;10.40;99.90
4183;DHT22;2105;52.300;9.182;2023-04-15T17:39:29;10.40;99.90
4183;DHT22;2105;52.300;9.182;2023-04-15T17:41:57;10.40;99.90
4183;DHT22;2105;52.300;9.182;2023-04-15T17:44:24;10.40;99.90
4183;DHT22;2105;52.300;9.182;2023-04-15T17:46:51;10.40;99.90
4183;DHT22;2105;52.300;9.182;2023-04-15T17:49:18;10.40;99.90
4183;DHT22;2105;52.300;9.182;2023-04-15T17:51:44;10.40;99.90
4183;DHT22;2105;52.300;9.182;2023-04-15T17:54:11;10.40;99.90
4183;DHT22;2105;52.300;9.182;2023-04-15T17:56:38;10.30;99.90
4183;DHT22;2105;52.300;9.182;2023-04-15T17:59:06;10.40;99.90
4183;DHT22;2105;52.300;9.182;2023-04-15T18:01:33;10.40;99.90
4183;DHT22;2105;52.300;9.182;2023-04-15T18:04:00;10.40;99.90
4183;DHT22;2105;52.300;9.182;2023-04-15T18:06:27;10.40;99.90
4183;DHT22;2105;52.300;9.182;2023-04-15T18:08:53;10.40;99.90
4183;DHT22;2105;52.300;9.182;2023-04-15T18:11:20;10.40;99.90
4183;DHT22;2105;52.300;9.182;2023-04-15T18:13:47;10.40;99.90
4183;DHT22;2105;52.300;9.182;2023-04-15T18:16:15;10.40;99.90
4183;DHT22;2105;52.300;9.182;2023-04-15T18:18:42;10.40;99.90
4183;DHT22;2105;52.300;9.182;2023-04-15T18:21:08;10.30;99.90
4183;DHT22;2105;52.300;9.182;2023-04-15T18:23:36;10.30;99.90
4183;DHT22;2105;52.300;9.182;2023-04-15T18:26:03;10.30;99.90
4183;DHT22;2105;52.300;9.182;2023-04-15T18:28:30;10.30;99.90
4183;DHT22;2105;52.300;9.182;2023-04-15T18:30:56;10.20;99.90
4183;DHT22;2105;52.300;9.182;2023-04-15T18:33:25;10.30;99.90
4183;DHT22;2105;52.300;9.182;2023-04-15T18:35:51;10.20;99.90
4183;DHT22;2105;52.300;9.182;2023-04-15T18:38:18;10.30;99.90
4183;DHT22;2105;52.300;9.182;2023-04-15T18:40:45;10.30;99.90
4183;DHT22;2105;52.300;9.182;2023-04-15T18:43:11;10.20;99.90
4183;DHT22;2105;52.300;9.182;2023-04-15T18:45:38;10.30;99.90
4183;DHT22;2105;52.300;9.182;2023-04-15T18:48:05;10.30;99.90
4183;DHT22;2105;52.300;9.182;2023-04-15T18:50:33;10.20;99.90
4183;DHT22;2105;52.300;9.182;2023-04-15T18:53:00;10.20;99.90
4183;DHT22;2105;52.300;9.182;2023-04-15T18:55:26;10.20;99.90
4183;DHT22;2105;52.300;9.182;2023-04-15T18:57:53;10.20;99.90
4183;DHT22;2105;52.300;9.182;2023-04-15T19:00:20;10.20;99.90
4183;DHT22;2105;52.300;9.182;2023-04-15T19:02:47;10.10;99.90
4183;DHT22;2105;52.300;9.182;2023-04-15T19:05:14;10.20;99.90
4183;DHT22;2105;52.300;9.182;2023-04-15T19:07:42;10.20;99.90
4183;DHT22;2105;52.300;9.182;2023-04-15T19:10:09;10.10;99.90
4183;DHT22;2105;52.300;9.182;2023-04-15T19:12:38;10.10;99.90
4183;DHT22;2105;52.300;9.182;2023-04-15T19:15:06;10.10;99.90
4183;DHT22;2105;52.300;9.182;2023-04-15T19:17:33;10.10;99.90
4183;DHT22;2105;52.300;9.182;2023-04-15T19:20:34;10.10;99.90
4183;DHT22;2105;52.300;9.182;2023-04-15T19:23:02;10.10;99.90
4183;DHT22;2105;52.300;9.182;2023-04-15T19:25:29;10.20;99.90
4183;DHT22;2105;52.300;9.182;2023-04-15T19:27:56;10.10;99.90